createdAt,value
2023-03-19T00:00:55.480Z,3.77
2023-03-19T00:05:57.342Z,3.60
2023-03-19T00:10:59.247Z,2.90
2023-03-19T00:16:01.466Z,3.90
2023-03-19T00:21:03.586Z,3.10
2023-03-19T00:26:06.726Z,4.00
2023-03-19T00:31:13.974Z,3.00
2023-03-19T00:36:19.154Z,2.80
2023-03-19T00:41:21.630Z,2.53
2023-03-19T00:46:24.631Z,3.40
2023-03-19T00:51:26.595Z,3.63
2023-03-19T00:56:28.520Z,2.37
2023-03-19T01:01:30.535Z,3.07
2023-03-19T01:06:32.432Z,3.10
2023-03-19T01:11:34.338Z,4.13
2023-03-19T01:16:36.347Z,3.50
2023-03-19T01:21:38.968Z,3.07
2023-03-19T01:26:41.197Z,2.50
2023-03-19T01:31:53.484Z,2.40
2023-03-19T01:37:18.394Z,2.60
2023-03-19T01:42:20.556Z,2.53
2023-03-19T01:47:45.919Z,2.87
2023-03-19T01:53:15.594Z,2.07
2023-03-19T01:58:34.836Z,2.50
2023-03-19T02:03:58.961Z,2.03
2023-03-19T02:09:03.800Z,2.43
2023-03-19T02:14:05.770Z,2.13
2023-03-19T02:19:13.500Z,2.37
2023-03-19T02:24:28.869Z,2.00
2023-03-19T02:29:44.884Z,2.03
2023-03-19T02:34:48.497Z,2.00
2023-03-19T02:39:53.391Z,1.90
2023-03-19T02:44:55.489Z,1.90
2023-03-19T02:49:57.323Z,2.07
2023-03-19T02:55:00.830Z,1.53
2023-03-19T03:00:05.080Z,2.20
2023-03-19T03:05:07.612Z,2.03
2023-03-19T03:10:10.470Z,2.27
2023-03-19T03:15:12.652Z,2.30
2023-03-19T03:20:17.694Z,1.97
2023-03-19T03:25:19.642Z,1.77
2023-03-19T03:30:23.077Z,2.27
2023-03-19T03:35:25.043Z,2.07
2023-03-19T03:40:27.406Z,1.80
2023-03-19T03:45:29.417Z,2.00
2023-03-19T03:50:31.564Z,2.13
2023-03-19T03:55:39.276Z,2.13
2023-03-19T04:00:41.208Z,2.40
2023-03-19T04:05:46.809Z,1.73
2023-03-19T04:10:48.951Z,1.97
2023-03-19T04:15:53.783Z,2.00
2023-03-19T04:20:57.781Z,2.67
2023-03-19T04:26:01.750Z,2.20
2023-03-19T04:31:06.169Z,2.60
2023-03-19T04:36:10.616Z,2.33
2023-03-19T04:41:15.844Z,2.40
2023-03-19T04:46:27.455Z,2.90
2023-03-19T04:51:29.655Z,2.13
2023-03-19T04:56:32.558Z,2.23
2023-03-19T05:01:34.840Z,3.20
2023-03-19T05:06:42.214Z,2.33
2023-03-19T05:11:44.301Z,2.50
2023-03-19T05:16:54.301Z,2.40
2023-03-19T05:21:57.260Z,1.90
2023-03-19T05:27:00.445Z,2.37
2023-03-19T05:32:21.294Z,3.27
2023-03-19T05:37:24.092Z,2.20
2023-03-19T05:42:31.298Z,2.73
2023-03-19T05:47:35.090Z,2.93
2023-03-19T05:52:40.680Z,2.40
2023-03-19T05:57:42.770Z,2.17
2023-03-19T06:02:49.311Z,2.53
2023-03-19T06:08:07.782Z,2.40
2023-03-19T06:13:46.314Z,2.30
2023-03-19T06:18:53.202Z,2.83
2023-03-19T06:23:56.656Z,2.20
2023-03-19T06:29:05.299Z,2.40
2023-03-19T06:34:13.520Z,2.13
2023-03-19T06:39:17.661Z,2.47
2023-03-19T06:44:20.135Z,2.00
2023-03-19T06:49:22.073Z,2.43
2023-03-19T06:54:24.029Z,2.33
2023-03-19T06:59:26.598Z,1.90
2023-03-19T07:04:28.671Z,2.30
2023-03-19T07:09:30.588Z,2.60
2023-03-19T07:14:32.513Z,2.10
2023-03-19T07:19:34.447Z,1.80
2023-03-19T07:24:36.343Z,3.00
2023-03-19T07:29:38.250Z,2.00
2023-03-19T07:34:40.780Z,2.43
2023-03-19T07:39:42.648Z,2.33
2023-03-19T07:44:44.547Z,2.50
2023-03-19T07:49:46.524Z,2.77
2023-03-19T07:54:48.483Z,2.20
2023-03-19T07:59:50.487Z,2.13
2023-03-19T08:04:52.582Z,2.60
2023-03-19T08:09:54.396Z,2.60
2023-03-19T08:14:56.408Z,3.60
2023-03-19T08:19:58.181Z,2.80
2023-03-19T08:25:00.048Z,2.60
2023-03-19T08:30:04.116Z,2.80
2023-03-19T08:35:07.187Z,2.37
2023-03-19T08:40:09.984Z,2.30
2023-03-19T08:45:14.199Z,2.23
2023-03-19T08:50:18.589Z,2.30
2023-03-19T08:55:23.055Z,2.53
2023-03-19T09:00:31.674Z,2.47
2023-03-19T09:05:46.434Z,2.23
2023-03-19T09:11:05.930Z,2.30
2023-03-19T09:16:51.394Z,2.03
2023-03-19T09:22:01.547Z,2.00
2023-03-19T09:27:03.497Z,2.40
2023-03-19T09:32:06.107Z,1.87
2023-03-19T09:37:08.396Z,1.70
2023-03-19T09:42:15.986Z,2.30
2023-03-19T09:47:33.794Z,1.80
2023-03-19T09:53:07.969Z,1.80
2023-03-19T09:58:18.526Z,1.90
2023-03-19T10:03:20.434Z,2.20
2023-03-19T10:08:32.853Z,2.30
2023-03-19T10:13:57.009Z,2.47
2023-03-19T10:19:02.680Z,3.03
2023-03-19T10:24:27.767Z,2.80
2023-03-19T10:29:29.590Z,3.43
2023-03-19T10:34:41.773Z,2.43
2023-03-19T10:39:45.501Z,2.27
2023-03-19T10:44:50.326Z,2.23
2023-03-19T10:49:52.308Z,2.33
2023-03-19T10:55:04.846Z,2.40
2023-03-19T11:00:15.473Z,2.97
2023-03-19T11:05:26.354Z,2.17
2023-03-19T11:10:31.560Z,2.20
2023-03-19T11:15:38.832Z,1.97
2023-03-19T11:20:41.871Z,2.40
2023-03-19T11:25:54.862Z,1.90
2023-03-19T11:31:08.963Z,1.40
2023-03-19T11:36:29.274Z,2.00
2023-03-19T11:41:57.053Z,1.60
2023-03-19T11:47:27.541Z,2.00
2023-03-19T11:52:32.420Z,1.63
2023-03-19T11:57:47.298Z,1.93
2023-03-19T12:02:59.857Z,1.83
2023-03-19T12:08:25.863Z,1.87
2023-03-19T12:13:45.607Z,1.90
2023-03-19T12:19:11.441Z,1.50
2023-03-19T12:24:32.078Z,1.53
2023-03-19T12:29:51.424Z,1.53
2023-03-19T12:35:01.165Z,1.83
2023-03-19T12:40:17.771Z,2.03
2023-03-19T12:45:28.337Z,1.70
2023-03-19T12:50:32.300Z,1.67
2023-03-19T12:55:41.263Z,1.70
2023-03-19T13:01:09.026Z,1.67
2023-03-19T13:06:29.016Z,1.23
2023-03-19T13:11:54.838Z,1.90
2023-03-19T13:17:24.912Z,1.60
2023-03-19T13:22:34.462Z,1.40
2023-03-19T13:27:36.651Z,1.60
2023-03-19T13:32:43.209Z,1.70
2023-03-19T13:37:45.145Z,1.50
2023-03-19T13:42:57.144Z,2.07
2023-03-19T13:48:37.200Z,1.63
2023-03-19T13:53:42.542Z,1.40
2023-03-19T13:58:54.058Z,1.50
2023-03-19T14:04:03.052Z,1.50
2023-03-19T14:09:07.894Z,1.33
2023-03-19T14:14:16.128Z,1.40
2023-03-19T14:19:19.943Z,1.60
2023-03-19T14:30:10.117Z,2.00
2023-03-19T14:35:20.234Z,1.47
2023-03-19T14:40:32.916Z,1.43
2023-03-19T14:46:00.958Z,1.40
2023-03-19T14:51:23.163Z,1.70
2023-03-19T14:56:34.200Z,1.43
2023-03-19T15:01:41.466Z,1.73
2023-03-19T15:06:52.191Z,1.80
2023-03-19T15:12:18.744Z,1.53
2023-03-19T15:17:29.982Z,1.70
2023-03-19T15:22:33.903Z,1.40
2023-03-19T15:27:36.350Z,1.70
2023-03-19T15:32:56.855Z,1.53
2023-03-19T15:38:13.266Z,1.57
2023-03-19T15:43:15.424Z,1.60
2023-03-19T15:48:22.463Z,1.70
2023-03-19T15:53:29.360Z,1.27
2023-03-19T15:58:40.339Z,1.20
2023-03-19T16:03:45.883Z,1.20
2023-03-19T16:08:50.840Z,0.97
2023-03-19T16:14:01.973Z,1.10
2023-03-19T16:19:03.898Z,1.30
2023-03-19T16:24:08.754Z,1.20
2023-03-19T16:29:33.077Z,1.30
2023-03-19T16:34:46.636Z,1.20
2023-03-19T16:39:57.538Z,1.30
2023-03-19T16:45:17.031Z,1.33
2023-03-19T16:50:21.404Z,1.40
2023-03-19T16:55:25.141Z,1.20
2023-03-19T17:00:31.741Z,1.60
2023-03-19T17:05:34.394Z,1.20
2023-03-19T17:10:38.206Z,1.20
2023-03-19T17:15:42.175Z,1.20
2023-03-19T17:20:56.645Z,1.10
2023-03-19T17:25:59.066Z,1.30
2023-03-19T17:31:00.997Z,1.30
2023-03-19T17:36:02.896Z,1.40
2023-03-19T17:41:18.393Z,1.70
2023-03-19T17:46:23.275Z,1.63
2023-03-19T17:51:25.931Z,1.47
2023-03-19T17:56:27.910Z,1.60
2023-03-19T18:01:29.928Z,1.70
2023-03-19T18:06:43.212Z,1.80
2023-03-19T18:11:45.257Z,1.87
2023-03-19T18:16:47.965Z,1.70
2023-03-19T18:21:49.813Z,1.60
2023-03-19T18:26:51.884Z,1.30
2023-03-19T18:31:54.075Z,2.63
2023-03-19T18:36:56.083Z,7.17
2023-03-19T18:41:57.966Z,1.57
2023-03-19T18:46:59.815Z,1.60
2023-03-19T18:52:03.587Z,1.60
2023-03-19T18:57:07.902Z,1.77
2023-03-19T19:02:32.316Z,1.63
2023-03-19T19:07:34.310Z,1.50
2023-03-19T19:12:39.311Z,2.10
2023-03-19T19:17:42.175Z,1.60
2023-03-19T19:22:44.104Z,2.03
2023-03-19T19:27:48.533Z,1.87
2023-03-19T19:32:50.670Z,1.70
2023-03-19T19:37:53.113Z,1.43
2023-03-19T19:42:55.060Z,1.73
2023-03-19T19:47:57.772Z,3.13
2023-03-19T19:53:02.329Z,2.43
2023-03-19T19:58:08.162Z,2.10
2023-03-19T20:03:29.187Z,1.60
2023-03-19T20:08:31.231Z,1.70
2023-03-19T20:13:34.801Z,1.80
2023-03-19T20:18:39.541Z,1.50
2023-03-19T20:23:42.848Z,1.63
2023-03-19T20:28:45.797Z,1.23
2023-03-19T20:33:50.384Z,1.30
2023-03-19T20:38:52.635Z,1.40
2023-03-19T20:43:55.765Z,1.60
2023-03-19T20:48:57.726Z,1.30
2023-03-19T20:53:59.610Z,1.60
2023-03-19T20:59:04.671Z,1.63
2023-03-19T21:04:11.436Z,1.50
2023-03-19T21:09:13.416Z,1.57
2023-03-19T21:14:18.707Z,1.70
2023-03-19T21:19:24.041Z,1.80
2023-03-19T21:24:26.208Z,1.57
2023-03-19T21:29:33.086Z,2.03
2023-03-19T21:34:34.936Z,1.77
2023-03-19T21:39:36.735Z,1.30
2023-03-19T21:44:38.797Z,1.87
2023-03-19T21:49:41.024Z,1.60
2023-03-19T21:54:42.880Z,1.50
2023-03-19T21:59:45.351Z,1.40
2023-03-19T22:04:47.127Z,1.40
2023-03-19T22:09:50.064Z,1.33
2023-03-19T22:14:52.195Z,1.40
2023-03-19T22:19:53.969Z,1.30
2023-03-19T22:24:59.207Z,1.50
2023-03-19T22:30:02.422Z,1.40
2023-03-19T22:35:04.951Z,1.67
2023-03-19T22:40:07.396Z,1.40
2023-03-19T22:45:30.602Z,1.30
2023-03-19T22:50:32.995Z,1.60
2023-03-19T22:55:37.165Z,1.50
2023-03-19T23:00:39.304Z,1.77
2023-03-19T23:05:45.355Z,1.90
2023-03-19T23:10:47.329Z,1.77
2023-03-19T23:15:55.003Z,1.97
2023-03-19T23:20:57.796Z,1.83
2023-03-19T23:25:59.595Z,1.40
2023-03-19T23:31:05.201Z,1.40
2023-03-19T23:36:07.331Z,1.40
2023-03-19T23:41:19.555Z,1.50
2023-03-19T23:46:22.150Z,1.50
2023-03-19T23:51:24.012Z,1.97
2023-03-19T23:56:27.047Z,1.90
